createdAt,value
2019-05-26T00:01:24.890Z,5.50
2019-05-26T00:03:53.385Z,5.00
2019-05-26T00:06:21.881Z,4.67
2019-05-26T00:08:50.705Z,5.67
2019-05-26T00:11:19.455Z,5.27
2019-05-26T00:13:48.182Z,6.33
2019-05-26T00:16:16.688Z,4.90
2019-05-26T00:18:45.213Z,5.20
2019-05-26T00:21:13.697Z,4.70
2019-05-26T00:23:42.309Z,4.90
2019-05-26T00:26:10.846Z,4.67
2019-05-26T00:28:39.348Z,4.83
2019-05-26T00:31:07.841Z,5.20
2019-05-26T00:33:36.352Z,5.90
2019-05-26T00:36:05.402Z,5.40
2019-05-26T00:38:34.163Z,5.40
2019-05-26T00:41:02.761Z,5.40
2019-05-26T00:43:31.209Z,4.97
2019-05-26T00:46:00.000Z,5.40
2019-05-26T00:48:28.832Z,5.63
2019-05-26T00:50:57.336Z,6.03
2019-05-26T00:53:26.068Z,5.77
2019-05-26T00:55:54.809Z,7.03
2019-05-26T00:58:23.317Z,6.00
2019-05-26T01:00:51.815Z,6.00
2019-05-26T01:03:20.546Z,5.77
2019-05-26T01:05:49.050Z,5.23
2019-05-26T01:08:17.787Z,6.00
2019-05-26T01:10:46.309Z,6.73
2019-05-26T01:13:15.086Z,6.43
2019-05-26T01:15:43.587Z,6.50
2019-05-26T01:18:12.990Z,6.90
2019-05-26T01:20:41.468Z,6.43
2019-05-26T01:23:09.955Z,6.03
2019-05-26T01:25:38.538Z,6.40
2019-05-26T01:28:07.062Z,6.27
2019-05-26T01:30:37.082Z,6.27
2019-05-26T01:33:05.677Z,6.20
2019-05-26T01:35:34.460Z,6.50
2019-05-26T01:38:02.985Z,6.23
2019-05-26T01:40:39.579Z,6.40
2019-05-26T01:43:08.327Z,6.43
2019-05-26T01:45:36.837Z,6.67
2019-05-26T01:48:05.994Z,6.60
2019-05-26T01:50:34.715Z,6.40
2019-05-26T01:53:03.602Z,7.10
2019-05-26T01:55:32.088Z,6.20
2019-05-26T01:58:00.690Z,6.23
2019-05-26T02:00:29.178Z,6.50
2019-05-26T02:02:57.771Z,6.40
2019-05-26T02:05:26.546Z,6.63
2019-05-26T02:07:55.061Z,6.53
2019-05-26T02:10:23.530Z,6.70
2019-05-26T02:12:52.056Z,6.50
2019-05-26T02:15:20.617Z,5.93
2019-05-26T02:17:49.571Z,5.90
2019-05-26T02:20:18.167Z,6.00
2019-05-26T02:22:46.669Z,6.57
2019-05-26T02:25:15.793Z,6.40
2019-05-26T02:27:44.918Z,6.47
2019-05-26T02:30:13.430Z,6.07
2019-05-26T02:32:41.959Z,6.50
2019-05-26T02:35:11.513Z,6.60
2019-05-26T02:37:40.015Z,7.13
2019-05-26T02:40:08.672Z,7.33
2019-05-26T02:42:37.174Z,6.80
2019-05-26T02:45:07.360Z,7.03
2019-05-26T02:47:35.852Z,7.53
2019-05-26T02:50:04.920Z,6.90
2019-05-26T02:52:33.415Z,7.50
2019-05-26T02:55:02.246Z,8.40
2019-05-26T02:57:30.760Z,8.10
2019-05-26T02:59:59.320Z,8.60
2019-05-26T03:02:28.179Z,8.30
2019-05-26T03:04:56.684Z,7.40
2019-05-26T03:07:26.134Z,7.73
2019-05-26T03:09:55.365Z,6.93
2019-05-26T03:12:23.875Z,7.47
2019-05-26T03:14:53.199Z,7.60
2019-05-26T03:17:21.959Z,7.13
2019-05-26T03:19:50.810Z,7.17
2019-05-26T03:22:19.982Z,7.40
2019-05-26T03:24:50.654Z,8.30
2019-05-26T03:27:19.179Z,7.87
2019-05-26T03:29:47.784Z,8.50
2019-05-26T03:32:16.427Z,8.37
2019-05-26T03:34:44.942Z,7.77
2019-05-26T03:37:13.504Z,7.63
2019-05-26T03:39:45.261Z,8.67
2019-05-26T03:42:12.458Z,7.30
2019-05-26T03:44:41.006Z,7.90
2019-05-26T03:47:09.510Z,7.50
2019-05-26T03:49:38.030Z,6.97
2019-05-26T03:52:06.538Z,7.33
2019-05-26T03:54:35.129Z,8.27
2019-05-26T03:57:03.620Z,7.20
2019-05-26T03:59:32.212Z,7.30
2019-05-26T04:02:00.771Z,7.30
2019-05-26T04:04:29.371Z,7.33
2019-05-26T04:06:57.867Z,7.30
2019-05-26T04:09:26.629Z,7.60
2019-05-26T04:11:55.227Z,8.50
2019-05-26T04:14:23.738Z,7.63
2019-05-26T04:16:52.313Z,7.60
2019-05-26T04:19:21.109Z,8.30
2019-05-26T04:21:49.674Z,7.17
2019-05-26T04:24:18.261Z,7.67
2019-05-26T04:26:46.820Z,7.60
2019-05-26T04:29:15.400Z,7.53
2019-05-26T04:31:43.998Z,7.50
2019-05-26T04:34:12.491Z,7.20
2019-05-26T04:36:41.051Z,8.10
2019-05-26T04:39:09.539Z,7.77
2019-05-26T04:41:38.052Z,8.37
2019-05-26T04:44:06.940Z,8.47
2019-05-26T04:46:35.421Z,8.20
2019-05-26T04:49:03.950Z,7.30
2019-05-26T04:51:32.454Z,7.63
2019-05-26T04:54:20.831Z,7.20
2019-05-26T04:56:49.379Z,7.30
2019-05-26T04:59:18.058Z,8.20
2019-05-26T05:01:46.574Z,8.23
2019-05-26T05:04:15.079Z,8.23
2019-05-26T05:06:43.624Z,7.60
2019-05-26T05:09:12.186Z,7.40
2019-05-26T05:11:41.224Z,7.77
2019-05-26T05:14:09.725Z,7.30
2019-05-26T05:16:38.261Z,8.40
2019-05-26T05:19:06.872Z,8.07
2019-05-26T05:21:35.517Z,7.30
2019-05-26T05:24:04.019Z,7.63
2019-05-26T05:26:32.526Z,7.07
2019-05-26T05:29:01.022Z,7.80
2019-05-26T05:31:29.905Z,6.83
2019-05-26T05:33:58.423Z,7.13
2019-05-26T05:36:26.924Z,7.73
2019-05-26T05:38:55.731Z,7.50
2019-05-26T05:41:24.804Z,7.23
2019-05-26T05:43:53.305Z,7.90
2019-05-26T05:46:21.797Z,6.70
2019-05-26T05:48:50.315Z,7.50
2019-05-26T05:51:18.795Z,6.73
2019-05-26T05:53:47.280Z,7.27
2019-05-26T05:56:15.805Z,6.93
2019-05-26T05:58:44.784Z,6.10
2019-05-26T06:01:13.382Z,6.60
2019-05-26T06:03:42.122Z,6.20
2019-05-26T06:06:10.921Z,6.30
2019-05-26T06:08:39.425Z,6.57
2019-05-26T06:11:16.600Z,6.10
2019-05-26T06:13:38.125Z,5.80
2019-05-26T06:16:06.609Z,6.60
2019-05-26T06:18:35.136Z,6.40
2019-05-26T06:21:03.676Z,6.70
2019-05-26T06:23:32.215Z,6.83
2019-05-26T06:26:00.760Z,6.17
2019-05-26T06:28:29.263Z,6.20
2019-05-26T06:30:57.811Z,6.80
2019-05-26T06:33:26.901Z,6.23
2019-05-26T06:35:55.408Z,5.20
2019-05-26T06:38:23.976Z,5.60
2019-05-26T06:40:52.840Z,6.13
2019-05-26T06:43:21.343Z,5.77
2019-05-26T06:45:49.863Z,5.60
2019-05-26T06:48:18.402Z,6.13
2019-05-26T06:50:46.909Z,5.67
2019-05-26T06:53:15.420Z,7.07
2019-05-26T06:55:44.046Z,5.50
2019-05-26T06:58:12.714Z,5.53
2019-05-26T07:00:41.704Z,6.60
2019-05-26T07:03:10.509Z,5.73
2019-05-26T07:05:39.176Z,6.70
2019-05-26T07:08:07.852Z,7.17
2019-05-26T07:10:36.779Z,6.87
2019-05-26T07:13:05.421Z,6.10
2019-05-26T07:15:34.107Z,7.47
2019-05-26T07:18:03.125Z,7.50
2019-05-26T07:20:31.825Z,6.50
2019-05-26T07:23:00.668Z,6.47
2019-05-26T07:25:29.300Z,5.80
2019-05-26T07:27:57.902Z,7.90
2019-05-26T07:30:26.722Z,6.90
2019-05-26T07:32:55.213Z,6.10
2019-05-26T07:35:23.822Z,5.70
2019-05-26T07:37:52.436Z,6.93
2019-05-26T07:40:21.044Z,6.60
2019-05-26T07:42:49.647Z,7.17
2019-05-26T07:45:18.381Z,6.80
2019-05-26T07:47:47.025Z,6.40
2019-05-26T07:50:15.636Z,6.63
2019-05-26T07:52:44.610Z,6.57
2019-05-26T07:55:13.320Z,6.77
2019-05-26T07:57:42.022Z,6.37
2019-05-26T08:00:10.692Z,7.27
2019-05-26T08:02:39.308Z,6.73
2019-05-26T08:05:10.561Z,7.40
2019-05-26T08:07:39.095Z,7.40
2019-05-26T08:10:07.790Z,9.57
2019-05-26T08:12:36.486Z,7.00
2019-05-26T08:15:05.240Z,8.30
2019-05-26T08:17:33.762Z,7.27
2019-05-26T08:20:02.292Z,7.23
2019-05-26T08:22:30.782Z,7.47
2019-05-26T08:24:59.271Z,6.87
2019-05-26T08:27:27.760Z,6.90
2019-05-26T08:29:56.550Z,5.93
2019-05-26T08:32:25.039Z,7.43
2019-05-26T08:34:53.561Z,7.10
2019-05-26T08:37:22.063Z,7.90
2019-05-26T08:39:50.554Z,8.27
2019-05-26T08:42:27.249Z,7.63
2019-05-26T08:44:49.285Z,7.80
2019-05-26T08:47:17.782Z,8.20
2019-05-26T08:49:46.280Z,8.07
2019-05-26T08:52:14.804Z,8.83
2019-05-26T08:54:43.291Z,8.90
2019-05-26T08:57:12.134Z,7.90
2019-05-26T08:59:40.640Z,9.20
2019-05-26T09:02:09.149Z,8.40
2019-05-26T09:04:37.640Z,6.97
2019-05-26T09:07:06.145Z,8.40
2019-05-26T09:09:34.842Z,7.23
2019-05-26T09:12:03.417Z,8.60
2019-05-26T09:14:32.029Z,7.33
2019-05-26T09:17:00.565Z,6.77
2019-05-26T09:19:29.049Z,5.67
2019-05-26T09:21:57.552Z,4.80
2019-05-26T09:24:26.050Z,3.53
2019-05-26T09:26:54.581Z,2.90
2019-05-26T09:29:23.115Z,3.67
2019-05-26T09:31:51.581Z,3.30
2019-05-26T09:34:20.114Z,3.60
2019-05-26T09:36:48.632Z,3.20
2019-05-26T09:39:17.145Z,2.60
2019-05-26T09:41:45.649Z,2.70
2019-05-26T09:44:14.404Z,2.60
2019-05-26T09:46:42.916Z,3.23
2019-05-26T09:49:11.435Z,3.23
2019-05-26T09:51:40.072Z,3.30
2019-05-26T09:54:08.663Z,2.77
2019-05-26T09:56:37.256Z,2.73
2019-05-26T09:59:05.779Z,2.60
2019-05-26T10:01:34.287Z,2.50
2019-05-26T10:04:02.861Z,2.63
2019-05-26T10:06:31.356Z,2.30
2019-05-26T10:08:59.869Z,2.30
2019-05-26T10:11:28.383Z,2.13
2019-05-26T10:13:57.012Z,2.40
2019-05-26T10:16:25.520Z,2.40
2019-05-26T10:18:54.093Z,2.10
2019-05-26T10:21:22.593Z,2.30
2019-05-26T10:23:53.158Z,2.43
2019-05-26T10:26:21.717Z,2.17
2019-05-26T10:28:50.261Z,1.90
2019-05-26T10:31:18.749Z,2.37
2019-05-26T10:33:47.271Z,2.20
2019-05-26T10:36:15.769Z,2.10
2019-05-26T10:38:44.576Z,2.40
2019-05-26T10:41:13.153Z,2.10
2019-05-26T10:43:47.437Z,2.10
2019-05-26T10:46:11.945Z,2.03
2019-05-26T10:48:40.458Z,2.33
2019-05-26T10:51:09.866Z,2.00
2019-05-26T10:53:38.408Z,1.73
2019-05-26T10:56:06.985Z,1.50
2019-05-26T10:58:35.729Z,1.80
2019-05-26T11:01:04.222Z,1.83
2019-05-26T11:03:32.755Z,2.20
2019-05-26T11:06:01.493Z,1.53
2019-05-26T11:08:30.254Z,1.60
2019-05-26T11:10:58.828Z,1.90
2019-05-26T11:13:27.341Z,1.73
2019-05-26T11:15:55.839Z,1.40
2019-05-26T11:18:24.371Z,1.17
2019-05-26T11:20:54.669Z,1.50
2019-05-26T11:23:23.280Z,1.70
2019-05-26T11:25:51.785Z,1.57
2019-05-26T11:28:20.352Z,1.47
2019-05-26T11:30:48.837Z,1.33
2019-05-26T11:33:17.417Z,1.20
2019-05-26T11:35:45.931Z,1.37
2019-05-26T11:38:14.421Z,1.20
2019-05-26T11:40:42.949Z,1.50
2019-05-26T11:43:16.893Z,1.50
2019-05-26T11:45:41.725Z,1.20
2019-05-26T11:48:10.221Z,1.50
2019-05-26T11:50:38.705Z,1.30
2019-05-26T11:53:07.203Z,1.20
2019-05-26T11:55:35.784Z,1.30
2019-05-26T11:58:04.281Z,1.20
2019-05-26T12:00:32.774Z,1.20
2019-05-26T12:03:01.283Z,1.00
2019-05-26T12:05:29.772Z,1.00
2019-05-26T12:07:58.275Z,1.20
2019-05-26T12:10:26.867Z,1.37
2019-05-26T12:12:55.646Z,1.10
2019-05-26T12:15:24.158Z,1.20
2019-05-26T12:17:52.670Z,1.20
2019-05-26T12:20:21.178Z,1.50
2019-05-26T12:22:49.708Z,1.47
2019-05-26T12:25:18.211Z,1.20
2019-05-26T12:27:46.776Z,1.20
2019-05-26T12:30:15.443Z,1.20
2019-05-26T12:32:43.989Z,1.10
2019-05-26T12:35:12.481Z,1.13
2019-05-26T12:37:40.996Z,1.20
2019-05-26T12:40:09.601Z,1.37
2019-05-26T12:42:38.077Z,1.13
2019-05-26T12:45:06.614Z,1.20
2019-05-26T12:47:35.466Z,1.40
2019-05-26T12:50:04.493Z,1.30
2019-05-26T12:52:32.999Z,1.30
2019-05-26T12:55:01.491Z,1.40
2019-05-26T12:57:30.074Z,1.53
2019-05-26T12:59:58.581Z,1.50
2019-05-26T13:02:27.070Z,1.60
2019-05-26T13:04:55.623Z,1.43
2019-05-26T13:07:24.149Z,1.30
2019-05-26T13:09:52.666Z,1.13
2019-05-26T13:12:21.228Z,1.50
2019-05-26T13:15:04.961Z,1.40
2019-05-26T13:17:20.053Z,1.50
2019-05-26T13:19:48.839Z,1.47
2019-05-26T13:22:17.326Z,1.60
2019-05-26T13:24:45.872Z,1.57
2019-05-26T13:27:14.344Z,1.40
2019-05-26T13:29:42.967Z,1.60
2019-05-26T13:32:11.518Z,1.40
2019-05-26T13:34:40.087Z,1.53
2019-05-26T13:37:08.601Z,1.30
2019-05-26T13:39:37.124Z,1.43
2019-05-26T13:42:05.630Z,1.50
2019-05-26T13:44:34.117Z,1.37
2019-05-26T13:47:02.643Z,1.80
2019-05-26T13:49:31.128Z,1.83
2019-05-26T13:51:59.668Z,1.40
2019-05-26T13:54:28.181Z,1.50
2019-05-26T13:56:56.745Z,1.50
2019-05-26T13:59:25.265Z,1.37
2019-05-26T14:01:53.810Z,1.50
2019-05-26T14:04:22.629Z,1.43
2019-05-26T14:06:51.124Z,1.30
2019-05-26T14:09:19.629Z,1.30
2019-05-26T14:11:48.137Z,1.43
2019-05-26T14:14:16.666Z,1.27
2019-05-26T14:16:45.883Z,1.40
2019-05-26T14:19:14.472Z,1.30
2019-05-26T14:21:43.354Z,1.50
2019-05-26T14:24:11.838Z,1.30
2019-05-26T14:26:40.389Z,1.50
2019-05-26T14:29:08.877Z,1.63
2019-05-26T14:31:37.402Z,1.53
2019-05-26T14:34:05.921Z,1.50
2019-05-26T14:36:34.432Z,1.50
2019-05-26T14:39:02.937Z,1.40
2019-05-26T14:41:31.454Z,1.27
2019-05-26T14:44:00.032Z,1.30
2019-05-26T14:46:28.546Z,1.20
2019-05-26T14:48:57.068Z,1.27
2019-05-26T14:51:25.575Z,1.40
2019-05-26T14:53:54.131Z,1.17
2019-05-26T14:56:22.626Z,1.30
2019-05-26T14:58:51.142Z,1.40
2019-05-26T15:01:19.640Z,1.50
2019-05-26T15:03:48.158Z,1.40
2019-05-26T15:06:16.682Z,1.07
2019-05-26T15:08:45.181Z,1.50
2019-05-26T15:11:13.671Z,1.00
2019-05-26T15:13:42.406Z,1.30
2019-05-26T15:16:10.923Z,2.10
2019-05-26T15:18:39.428Z,1.00
2019-05-26T15:21:08.077Z,1.30
2019-05-26T15:23:36.672Z,1.10
2019-05-26T15:26:05.653Z,1.27
2019-05-26T15:28:34.252Z,1.30
2019-05-26T15:31:02.766Z,1.00
2019-05-26T15:33:31.355Z,0.90
2019-05-26T15:35:59.916Z,1.87
2019-05-26T15:38:41.933Z,0.90
2019-05-26T15:40:58.617Z,1.40
2019-05-26T15:43:27.114Z,1.03
2019-05-26T15:45:55.611Z,1.10
2019-05-26T15:48:24.152Z,1.10
2019-05-26T15:50:52.668Z,0.93
2019-05-26T15:53:21.273Z,1.10
2019-05-26T15:55:49.758Z,1.10
2019-05-26T15:58:18.526Z,1.10
2019-05-26T16:00:47.151Z,1.20
2019-05-26T16:03:15.616Z,1.40
2019-05-26T16:05:44.141Z,1.10
2019-05-26T16:08:12.637Z,1.40
2019-05-26T16:10:41.127Z,1.30
2019-05-26T16:13:09.620Z,1.50
2019-05-26T16:15:38.106Z,2.07
2019-05-26T16:18:06.886Z,1.60
2019-05-26T16:20:35.365Z,1.60
2019-05-26T16:23:03.921Z,1.07
2019-05-26T16:25:32.439Z,1.30
2019-05-26T16:28:00.923Z,1.03
2019-05-26T16:30:29.507Z,1.40
2019-05-26T16:32:58.167Z,1.00
2019-05-26T16:35:26.762Z,1.73
2019-05-26T16:37:55.258Z,1.40
2019-05-26T16:40:23.788Z,1.80
2019-05-26T16:42:52.275Z,1.37
2019-05-26T16:45:20.956Z,1.33
2019-05-26T16:47:49.832Z,1.23
2019-05-26T16:50:18.686Z,1.57
2019-05-26T16:52:47.727Z,1.47
2019-05-26T16:55:16.317Z,1.67
2019-05-26T16:57:44.860Z,1.27
2019-05-26T17:00:13.435Z,1.57
2019-05-26T17:02:41.912Z,1.77
2019-05-26T17:05:10.559Z,1.50
2019-05-26T17:07:39.088Z,1.57
2019-05-26T17:10:07.651Z,1.67
2019-05-26T17:12:36.155Z,1.33
2019-05-26T17:15:05.148Z,1.37
2019-05-26T17:17:33.761Z,2.00
2019-05-26T17:20:02.329Z,1.60
2019-05-26T17:22:31.088Z,1.47
2019-05-26T17:25:00.089Z,1.50
2019-05-26T17:27:28.924Z,1.30
2019-05-26T17:29:57.491Z,1.30
2019-05-26T17:32:26.005Z,1.17
2019-05-26T17:34:54.566Z,1.40
2019-05-26T17:37:23.349Z,1.00
2019-05-26T17:39:52.026Z,1.40
2019-05-26T17:42:20.618Z,1.10
2019-05-26T17:44:49.152Z,1.37
2019-05-26T17:47:29.885Z,1.40
2019-05-26T17:49:48.340Z,1.10
2019-05-26T17:52:16.963Z,1.20
2019-05-26T17:54:45.500Z,1.03
2019-05-26T17:57:14.004Z,1.00
2019-05-26T17:59:42.560Z,1.37
2019-05-26T18:02:11.138Z,1.27
2019-05-26T18:04:39.679Z,1.30
2019-05-26T18:07:08.172Z,1.10
2019-05-26T18:09:44.351Z,1.30
2019-05-26T18:12:06.978Z,1.43
2019-05-26T18:14:35.575Z,1.17
2019-05-26T18:17:04.290Z,1.40
2019-05-26T18:19:32.788Z,1.23
2019-05-26T18:22:01.456Z,0.90
2019-05-26T18:24:30.078Z,1.30
2019-05-26T18:26:58.712Z,1.03
2019-05-26T18:29:27.429Z,1.20
2019-05-26T18:31:56.545Z,1.00
2019-05-26T18:34:25.353Z,1.40
2019-05-26T18:36:53.953Z,1.00
2019-05-26T18:39:22.574Z,1.43
2019-05-26T18:41:51.182Z,1.03
2019-05-26T18:44:19.856Z,1.30
2019-05-26T18:46:48.535Z,1.30
2019-05-26T18:49:17.646Z,1.20
2019-05-26T18:51:46.317Z,1.20
2019-05-26T18:54:14.914Z,1.67
2019-05-26T18:56:43.585Z,1.33
2019-05-26T18:59:12.407Z,1.73
2019-05-26T19:01:41.060Z,1.67
2019-05-26T19:04:09.836Z,1.20
2019-05-26T19:06:38.443Z,1.00
2019-05-26T19:09:08.637Z,1.27
2019-05-26T19:11:37.367Z,0.97
2019-05-26T19:14:06.240Z,1.20
2019-05-26T19:16:34.892Z,1.50
2019-05-26T19:19:03.741Z,1.37
2019-05-26T19:21:32.369Z,1.60
2019-05-26T19:24:00.937Z,1.40
2019-05-26T19:26:29.494Z,1.50
2019-05-26T19:28:58.160Z,1.30
2019-05-26T19:31:26.979Z,1.30
2019-05-26T19:33:55.861Z,1.87
2019-05-26T19:36:24.501Z,1.47
2019-05-26T19:38:53.195Z,1.57
2019-05-26T19:41:21.893Z,1.47
2019-05-26T19:43:50.584Z,1.50
2019-05-26T19:46:19.231Z,1.30
2019-05-26T19:48:48.068Z,1.40
2019-05-26T19:51:16.699Z,1.17
2019-05-26T19:53:45.323Z,1.50
2019-05-26T19:56:13.997Z,1.40
2019-05-26T19:58:42.742Z,1.40
2019-05-26T20:01:11.362Z,1.70
2019-05-26T20:03:39.949Z,1.17
2019-05-26T20:06:08.538Z,1.50
2019-05-26T20:08:37.078Z,1.83
2019-05-26T20:11:05.643Z,1.67
2019-05-26T20:13:34.425Z,1.73
2019-05-26T20:16:02.953Z,1.50
2019-05-26T20:18:31.512Z,1.60
2019-05-26T20:21:00.359Z,1.60
2019-05-26T20:23:29.144Z,1.50
2019-05-26T20:25:57.640Z,1.70
2019-05-26T20:28:26.181Z,1.80
2019-05-26T20:30:54.672Z,1.60
2019-05-26T20:33:23.229Z,1.37
2019-05-26T20:35:52.078Z,1.50
2019-05-26T20:38:20.954Z,1.50
2019-05-26T20:40:49.480Z,1.60
2019-05-26T20:43:18.331Z,1.53
2019-05-26T20:45:46.855Z,1.90
2019-05-26T20:48:15.363Z,1.70
2019-05-26T20:50:43.926Z,1.60
2019-05-26T20:53:12.803Z,2.17
2019-05-26T20:55:41.308Z,2.10
2019-05-26T20:58:10.097Z,2.00
2019-05-26T21:00:38.580Z,1.80
2019-05-26T21:03:07.071Z,1.93
2019-05-26T21:05:35.576Z,2.00
2019-05-26T21:08:04.056Z,1.90
2019-05-26T21:10:32.560Z,1.70
2019-05-26T21:13:01.060Z,1.80
2019-05-26T21:15:29.569Z,1.77
2019-05-26T21:17:58.149Z,1.80
2019-05-26T21:20:26.652Z,2.20
2019-05-26T21:22:55.895Z,1.60
2019-05-26T21:25:24.524Z,2.20
2019-05-26T21:27:53.014Z,1.60
2019-05-26T21:30:21.520Z,1.90
2019-05-26T21:32:50.034Z,1.90
2019-05-26T21:35:18.864Z,1.87
2019-05-26T21:37:47.386Z,1.90
2019-05-26T21:40:15.889Z,1.90
2019-05-26T21:42:44.380Z,2.07
2019-05-26T21:45:12.877Z,1.70
2019-05-26T21:47:41.370Z,2.00
2019-05-26T21:50:09.871Z,1.73
2019-05-26T21:52:38.347Z,1.67
2019-05-26T21:55:06.834Z,2.03
2019-05-26T21:57:35.324Z,1.90
2019-05-26T22:00:04.524Z,2.00
2019-05-26T22:02:33.010Z,1.93
2019-05-26T22:05:01.509Z,1.93
2019-05-26T22:07:30.291Z,2.10
2019-05-26T22:09:58.804Z,2.47
2019-05-26T22:12:27.360Z,1.63
2019-05-26T22:14:55.969Z,2.17
2019-05-26T22:17:24.450Z,1.80
2019-05-26T22:19:52.932Z,1.90
2019-05-26T22:22:21.701Z,1.90
2019-05-26T22:24:50.166Z,2.40
2019-05-26T22:27:18.833Z,1.83
2019-05-26T22:29:47.367Z,2.00
2019-05-26T22:32:16.281Z,1.97
2019-05-26T22:34:44.775Z,2.30
2019-05-26T22:37:13.270Z,1.80
2019-05-26T22:39:41.761Z,2.10
2019-05-26T22:42:10.593Z,2.03
2019-05-26T22:44:39.069Z,1.53
2019-05-26T22:47:07.559Z,1.97
2019-05-26T22:49:36.043Z,2.17
2019-05-26T22:52:04.534Z,2.20
2019-05-26T22:54:33.265Z,1.90
2019-05-26T22:57:01.752Z,2.33
2019-05-26T22:59:30.260Z,2.07
2019-05-26T23:01:58.740Z,2.03
2019-05-26T23:04:27.229Z,2.33
2019-05-26T23:06:55.717Z,1.77
2019-05-26T23:09:24.209Z,2.03
2019-05-26T23:11:52.711Z,2.40
2019-05-26T23:14:21.234Z,2.33
2019-05-26T23:16:49.764Z,2.17
2019-05-26T23:19:20.023Z,1.97
2019-05-26T23:21:48.472Z,2.13
2019-05-26T23:24:17.281Z,2.50
2019-05-26T23:26:45.783Z,2.10
2019-05-26T23:29:14.287Z,2.37
2019-05-26T23:31:42.776Z,2.10
2019-05-26T23:34:11.525Z,1.93
2019-05-26T23:36:40.008Z,2.50
2019-05-26T23:39:08.798Z,2.20
2019-05-26T23:41:37.323Z,1.80
2019-05-26T23:44:05.816Z,1.80
2019-05-26T23:46:34.374Z,2.60
2019-05-26T23:49:02.975Z,2.40
2019-05-26T23:51:31.458Z,2.00
2019-05-26T23:53:59.947Z,2.57
2019-05-26T23:56:28.682Z,2.33
2019-05-26T23:58:57.203Z,2.27
